sensor_id;sensor_type;location;lat;lon;timestamp;P1;durP1;ratioP1;P2;durP2;ratioP2
17598;SDS011;8918;52.092;5.232;2024-02-21T00:02:07;15.67;;;4.10;;
17598;SDS011;8918;52.092;5.232;2024-02-21T00:04:33;12.50;;;3.70;;
17598;SDS011;8918;52.092;5.232;2024-02-21T00:06:59;12.70;;;4.27;;
17598;SDS011;8918;52.092;5.232;2024-02-21T00:09:25;12.10;;;4.10;;
17598;SDS011;8918;52.092;5.232;2024-02-21T00:11:51;13.10;;;3.70;;
17598;SDS011;8918;52.092;5.232;2024-02-21T00:14:16;10.17;;;4.40;;
17598;SDS011;8918;52.092;5.232;2024-02-21T00:16:42;12.43;;;3.90;;
17598;SDS011;8918;52.092;5.232;2024-02-21T00:19:08;13.23;;;3.80;;
17598;SDS011;8918;52.092;5.232;2024-02-21T00:21:33;12.30;;;4.17;;
17598;SDS011;8918;52.092;5.232;2024-02-21T00:23:59;11.30;;;3.67;;
17598;SDS011;8918;52.092;5.232;2024-02-21T00:26:24;11.57;;;3.70;;
17598;SDS011;8918;52.092;5.232;2024-02-21T00:28:50;9.17;;;4.23;;
17598;SDS011;8918;52.092;5.232;2024-02-21T00:31:16;13.40;;;3.93;;
17598;SDS011;8918;52.092;5.232;2024-02-21T00:33:42;11.00;;;3.60;;
17598;SDS011;8918;52.092;5.232;2024-02-21T00:36:07;13.47;;;4.43;;
17598;SDS011;8918;52.092;5.232;2024-02-21T00:38:33;11.80;;;3.73;;
17598;SDS011;8918;52.092;5.232;2024-02-21T00:40:58;14.03;;;4.50;;
17598;SDS011;8918;52.092;5.232;2024-02-21T00:43:24;11.87;;;4.63;;
17598;SDS011;8918;52.092;5.232;2024-02-21T00:45:50;11.03;;;4.40;;
17598;SDS011;8918;52.092;5.232;2024-02-21T00:48:16;12.57;;;4.10;;
17598;SDS011;8918;52.092;5.232;2024-02-21T00:50:41;15.33;;;3.87;;
17598;SDS011;8918;52.092;5.232;2024-02-21T00:53:07;9.87;;;3.67;;
17598;SDS011;8918;52.092;5.232;2024-02-21T00:55:33;8.73;;;4.03;;
17598;SDS011;8918;52.092;5.232;2024-02-21T00:57:59;10.90;;;3.97;;
17598;SDS011;8918;52.092;5.232;2024-02-21T01:00:25;12.60;;;4.00;;
17598;SDS011;8918;52.092;5.232;2024-02-21T01:02:50;14.60;;;4.50;;
17598;SDS011;8918;52.092;5.232;2024-02-21T01:05:16;8.80;;;4.33;;
17598;SDS011;8918;52.092;5.232;2024-02-21T01:07:42;7.60;;;3.87;;
17598;SDS011;8918;52.092;5.232;2024-02-21T01:10:07;8.70;;;3.83;;
17598;SDS011;8918;52.092;5.232;2024-02-21T01:12:33;14.83;;;4.43;;
17598;SDS011;8918;52.092;5.232;2024-02-21T01:14:59;12.87;;;3.80;;
17598;SDS011;8918;52.092;5.232;2024-02-21T01:17:25;11.23;;;3.70;;
17598;SDS011;8918;52.092;5.232;2024-02-21T01:19:50;12.83;;;4.03;;
17598;SDS011;8918;52.092;5.232;2024-02-21T01:22:17;7.97;;;3.80;;
17598;SDS011;8918;52.092;5.232;2024-02-21T01:24:43;9.80;;;4.60;;
17598;SDS011;8918;52.092;5.232;2024-02-21T01:27:08;12.43;;;4.53;;
17598;SDS011;8918;52.092;5.232;2024-02-21T01:29:34;10.03;;;3.83;;
17598;SDS011;8918;52.092;5.232;2024-02-21T01:32:00;9.93;;;3.83;;
17598;SDS011;8918;52.092;5.232;2024-02-21T01:34:25;12.77;;;4.50;;
17598;SDS011;8918;52.092;5.232;2024-02-21T01:36:51;13.47;;;4.10;;
17598;SDS011;8918;52.092;5.232;2024-02-21T01:39:18;12.10;;;4.40;;
17598;SDS011;8918;52.092;5.232;2024-02-21T01:41:44;13.33;;;4.40;;
17598;SDS011;8918;52.092;5.232;2024-02-21T01:44:09;10.73;;;4.40;;
17598;SDS011;8918;52.092;5.232;2024-02-21T01:46:35;13.03;;;4.57;;
17598;SDS011;8918;52.092;5.232;2024-02-21T01:49:01;12.87;;;4.77;;
17598;SDS011;8918;52.092;5.232;2024-02-21T01:51:26;12.87;;;4.80;;
17598;SDS011;8918;52.092;5.232;2024-02-21T01:53:53;16.70;;;5.20;;
17598;SDS011;8918;52.092;5.232;2024-02-21T01:56:19;13.73;;;5.03;;
17598;SDS011;8918;52.092;5.232;2024-02-21T01:58:46;14.23;;;5.10;;
17598;SDS011;8918;52.092;5.232;2024-02-21T02:01:13;12.30;;;5.20;;
17598;SDS011;8918;52.092;5.232;2024-02-21T02:03:39;11.17;;;5.27;;
17598;SDS011;8918;52.092;5.232;2024-02-21T02:06:05;11.50;;;4.80;;
17598;SDS011;8918;52.092;5.232;2024-02-21T02:08:31;17.47;;;5.70;;
17598;SDS011;8918;52.092;5.232;2024-02-21T02:10:58;20.57;;;5.40;;
17598;SDS011;8918;52.092;5.232;2024-02-21T02:13:24;15.33;;;5.53;;
17598;SDS011;8918;52.092;5.232;2024-02-21T02:15:50;13.00;;;5.43;;
17598;SDS011;8918;52.092;5.232;2024-02-21T02:18:16;10.13;;;5.30;;
17598;SDS011;8918;52.092;5.232;2024-02-21T02:20:46;17.03;;;5.73;;
17598;SDS011;8918;52.092;5.232;2024-02-21T02:25:50;14.57;;;5.70;;
17598;SDS011;8918;52.092;5.232;2024-02-21T02:28:19;11.43;;;6.00;;
17598;SDS011;8918;52.092;5.232;2024-02-21T02:30:45;9.80;;;5.13;;
17598;SDS011;8918;52.092;5.232;2024-02-21T02:33:11;13.57;;;6.13;;
17598;SDS011;8918;52.092;5.232;2024-02-21T02:35:37;14.10;;;6.13;;
17598;SDS011;8918;52.092;5.232;2024-02-21T02:38:03;15.87;;;6.27;;
17598;SDS011;8918;52.092;5.232;2024-02-21T02:40:29;16.10;;;6.43;;
17598;SDS011;8918;52.092;5.232;2024-02-21T02:42:56;14.20;;;6.10;;
17598;SDS011;8918;52.092;5.232;2024-02-21T02:45:22;15.07;;;6.40;;
17598;SDS011;8918;52.092;5.232;2024-02-21T02:47:54;16.93;;;6.27;;
17598;SDS011;8918;52.092;5.232;2024-02-21T02:50:21;16.03;;;6.00;;
17598;SDS011;8918;52.092;5.232;2024-02-21T02:52:51;15.17;;;5.90;;
17598;SDS011;8918;52.092;5.232;2024-02-21T02:55:17;12.23;;;5.93;;
17598;SDS011;8918;52.092;5.232;2024-02-21T02:57:42;15.60;;;5.80;;
17598;SDS011;8918;52.092;5.232;2024-02-21T03:00:10;12.63;;;5.37;;
17598;SDS011;8918;52.092;5.232;2024-02-21T03:02:37;15.87;;;5.10;;
17598;SDS011;8918;52.092;5.232;2024-02-21T03:05:14;12.73;;;5.20;;
17598;SDS011;8918;52.092;5.232;2024-02-21T03:07:43;9.60;;;5.50;;
17598;SDS011;8918;52.092;5.232;2024-02-21T03:10:10;16.77;;;6.07;;
17598;SDS011;8918;52.092;5.232;2024-02-21T03:12:36;15.97;;;6.03;;
17598;SDS011;8918;52.092;5.232;2024-02-21T03:15:02;10.60;;;5.33;;
17598;SDS011;8918;52.092;5.232;2024-02-21T03:17:29;12.90;;;5.73;;
17598;SDS011;8918;52.092;5.232;2024-02-21T03:19:55;14.50;;;5.53;;
17598;SDS011;8918;52.092;5.232;2024-02-21T03:22:21;13.97;;;5.20;;
17598;SDS011;8918;52.092;5.232;2024-02-21T03:24:47;15.80;;;6.07;;
17598;SDS011;8918;52.092;5.232;2024-02-21T03:27:13;13.07;;;5.80;;
17598;SDS011;8918;52.092;5.232;2024-02-21T03:29:38;11.97;;;5.60;;
17598;SDS011;8918;52.092;5.232;2024-02-21T03:32:04;12.57;;;5.30;;
17598;SDS011;8918;52.092;5.232;2024-02-21T03:34:30;14.70;;;6.10;;
17598;SDS011;8918;52.092;5.232;2024-02-21T03:36:55;11.43;;;5.27;;
17598;SDS011;8918;52.092;5.232;2024-02-21T03:39:21;12.70;;;5.47;;
17598;SDS011;8918;52.092;5.232;2024-02-21T03:41:47;15.20;;;6.10;;
17598;SDS011;8918;52.092;5.232;2024-02-21T03:44:13;15.60;;;5.90;;
17598;SDS011;8918;52.092;5.232;2024-02-21T03:46:38;15.57;;;6.00;;
17598;SDS011;8918;52.092;5.232;2024-02-21T03:49:04;12.37;;;5.50;;
17598;SDS011;8918;52.092;5.232;2024-02-21T03:51:30;12.70;;;5.93;;
17598;SDS011;8918;52.092;5.232;2024-02-21T03:53:56;10.60;;;5.37;;
17598;SDS011;8918;52.092;5.232;2024-02-21T03:56:21;14.87;;;5.87;;
17598;SDS011;8918;52.092;5.232;2024-02-21T03:58:47;13.07;;;5.30;;
17598;SDS011;8918;52.092;5.232;2024-02-21T04:01:14;10.63;;;5.47;;
17598;SDS011;8918;52.092;5.232;2024-02-21T04:03:40;13.57;;;5.87;;
17598;SDS011;8918;52.092;5.232;2024-02-21T04:06:07;13.00;;;4.97;;
17598;SDS011;8918;52.092;5.232;2024-02-21T04:08:33;12.00;;;5.00;;
17598;SDS011;8918;52.092;5.232;2024-02-21T04:10:58;13.87;;;5.17;;
17598;SDS011;8918;52.092;5.232;2024-02-21T04:13:24;12.23;;;5.17;;
17598;SDS011;8918;52.092;5.232;2024-02-21T04:15:50;11.30;;;5.60;;
17598;SDS011;8918;52.092;5.232;2024-02-21T04:18:16;10.70;;;4.93;;
17598;SDS011;8918;52.092;5.232;2024-02-21T04:20:41;11.27;;;5.60;;
17598;SDS011;8918;52.092;5.232;2024-02-21T04:23:07;10.50;;;5.40;;
17598;SDS011;8918;52.092;5.232;2024-02-21T04:25:33;12.37;;;5.60;;
17598;SDS011;8918;52.092;5.232;2024-02-21T04:27:58;11.67;;;5.77;;
17598;SDS011;8918;52.092;5.232;2024-02-21T04:30:24;16.03;;;5.77;;
17598;SDS011;8918;52.092;5.232;2024-02-21T04:32:50;12.17;;;5.73;;
17598;SDS011;8918;52.092;5.232;2024-02-21T04:35:16;12.40;;;5.70;;
17598;SDS011;8918;52.092;5.232;2024-02-21T04:37:41;11.87;;;6.13;;
17598;SDS011;8918;52.092;5.232;2024-02-21T04:40:07;11.30;;;5.63;;
17598;SDS011;8918;52.092;5.232;2024-02-21T04:42:34;11.20;;;5.40;;
17598;SDS011;8918;52.092;5.232;2024-02-21T04:45:00;12.83;;;6.30;;
17598;SDS011;8918;52.092;5.232;2024-02-21T04:47:26;14.40;;;6.63;;
17598;SDS011;8918;52.092;5.232;2024-02-21T04:49:52;11.43;;;6.07;;
17598;SDS011;8918;52.092;5.232;2024-02-21T04:52:18;12.87;;;6.47;;
17598;SDS011;8918;52.092;5.232;2024-02-21T04:54:43;14.00;;;6.67;;
17598;SDS011;8918;52.092;5.232;2024-02-21T04:57:09;13.23;;;6.50;;
17598;SDS011;8918;52.092;5.232;2024-02-21T04:59:35;12.13;;;6.87;;
17598;SDS011;8918;52.092;5.232;2024-02-21T05:02:01;12.13;;;7.13;;
17598;SDS011;8918;52.092;5.232;2024-02-21T05:04:27;13.47;;;7.10;;
17598;SDS011;8918;52.092;5.232;2024-02-21T05:06:53;11.43;;;6.93;;
17598;SDS011;8918;52.092;5.232;2024-02-21T05:09:19;13.63;;;7.20;;
17598;SDS011;8918;52.092;5.232;2024-02-21T05:11:45;12.13;;;7.23;;
17598;SDS011;8918;52.092;5.232;2024-02-21T05:14:10;12.90;;;7.47;;
17598;SDS011;8918;52.092;5.232;2024-02-21T05:16:36;11.00;;;7.57;;
17598;SDS011;8918;52.092;5.232;2024-02-21T05:19:04;13.43;;;7.10;;
17598;SDS011;8918;52.092;5.232;2024-02-21T05:21:30;11.40;;;7.30;;
17598;SDS011;8918;52.092;5.232;2024-02-21T05:23:55;12.30;;;7.43;;
17598;SDS011;8918;52.092;5.232;2024-02-21T05:26:25;13.60;;;7.73;;
17598;SDS011;8918;52.092;5.232;2024-02-21T05:28:52;15.13;;;7.53;;
17598;SDS011;8918;52.092;5.232;2024-02-21T05:31:18;10.53;;;7.03;;
17598;SDS011;8918;52.092;5.232;2024-02-21T05:33:44;10.93;;;6.73;;
17598;SDS011;8918;52.092;5.232;2024-02-21T05:36:10;9.97;;;6.73;;
17598;SDS011;8918;52.092;5.232;2024-02-21T05:38:37;12.20;;;7.33;;
17598;SDS011;8918;52.092;5.232;2024-02-21T05:41:03;13.27;;;7.13;;
17598;SDS011;8918;52.092;5.232;2024-02-21T05:43:29;12.93;;;6.87;;
17598;SDS011;8918;52.092;5.232;2024-02-21T05:45:54;13.60;;;6.90;;
17598;SDS011;8918;52.092;5.232;2024-02-21T05:48:20;11.60;;;6.53;;
17598;SDS011;8918;52.092;5.232;2024-02-21T05:50:47;11.43;;;6.47;;
17598;SDS011;8918;52.092;5.232;2024-02-21T05:53:12;11.40;;;7.07;;
17598;SDS011;8918;52.092;5.232;2024-02-21T05:55:38;14.97;;;7.30;;
17598;SDS011;8918;52.092;5.232;2024-02-21T05:58:04;12.50;;;7.43;;
17598;SDS011;8918;52.092;5.232;2024-02-21T06:00:30;12.07;;;7.27;;
17598;SDS011;8918;52.092;5.232;2024-02-21T06:02:57;13.40;;;7.33;;
17598;SDS011;8918;52.092;5.232;2024-02-21T06:05:22;13.47;;;7.80;;
17598;SDS011;8918;52.092;5.232;2024-02-21T06:07:48;12.97;;;7.90;;
17598;SDS011;8918;52.092;5.232;2024-02-21T06:10:14;14.00;;;8.20;;
17598;SDS011;8918;52.092;5.232;2024-02-21T06:12:39;13.17;;;7.57;;
17598;SDS011;8918;52.092;5.232;2024-02-21T06:15:05;14.37;;;8.40;;
17598;SDS011;8918;52.092;5.232;2024-02-21T06:17:31;15.67;;;8.50;;
17598;SDS011;8918;52.092;5.232;2024-02-21T06:19:57;15.43;;;9.13;;
17598;SDS011;8918;52.092;5.232;2024-02-21T06:22:22;14.77;;;9.50;;
17598;SDS011;8918;52.092;5.232;2024-02-21T06:24:48;18.50;;;9.40;;
17598;SDS011;8918;52.092;5.232;2024-02-21T06:27:13;19.80;;;9.80;;
17598;SDS011;8918;52.092;5.232;2024-02-21T06:29:41;15.50;;;9.43;;
17598;SDS011;8918;52.092;5.232;2024-02-21T06:32:07;16.70;;;9.30;;
17598;SDS011;8918;52.092;5.232;2024-02-21T06:34:32;13.27;;;9.30;;
17598;SDS011;8918;52.092;5.232;2024-02-21T06:36:58;18.17;;;9.83;;
17598;SDS011;8918;52.092;5.232;2024-02-21T06:39:23;18.57;;;10.30;;
17598;SDS011;8918;52.092;5.232;2024-02-21T06:41:49;18.23;;;9.87;;
17598;SDS011;8918;52.092;5.232;2024-02-21T06:44:18;17.47;;;10.07;;
17598;SDS011;8918;52.092;5.232;2024-02-21T06:46:45;18.43;;;11.07;;
17598;SDS011;8918;52.092;5.232;2024-02-21T06:49:10;18.57;;;10.80;;
17598;SDS011;8918;52.092;5.232;2024-02-21T06:51:41;19.47;;;10.40;;
17598;SDS011;8918;52.092;5.232;2024-02-21T06:54:08;18.97;;;11.30;;
17598;SDS011;8918;52.092;5.232;2024-02-21T06:56:34;19.90;;;11.33;;
17598;SDS011;8918;52.092;5.232;2024-02-21T06:59:01;24.30;;;11.17;;
17598;SDS011;8918;52.092;5.232;2024-02-21T07:01:28;24.23;;;11.57;;
17598;SDS011;8918;52.092;5.232;2024-02-21T07:03:54;20.47;;;11.40;;
17598;SDS011;8918;52.092;5.232;2024-02-21T07:06:19;23.37;;;11.80;;
17598;SDS011;8918;52.092;5.232;2024-02-21T07:08:45;21.13;;;11.23;;
17598;SDS011;8918;52.092;5.232;2024-02-21T07:11:11;21.10;;;11.00;;
17598;SDS011;8918;52.092;5.232;2024-02-21T07:13:36;25.87;;;11.47;;
17598;SDS011;8918;52.092;5.232;2024-02-21T07:16:02;25.30;;;11.37;;
17598;SDS011;8918;52.092;5.232;2024-02-21T07:18:27;19.63;;;11.10;;
17598;SDS011;8918;52.092;5.232;2024-02-21T07:20:53;24.67;;;12.00;;
17598;SDS011;8918;52.092;5.232;2024-02-21T07:23:18;21.87;;;11.37;;
17598;SDS011;8918;52.092;5.232;2024-02-21T07:25:44;21.63;;;11.50;;
17598;SDS011;8918;52.092;5.232;2024-02-21T07:28:10;22.33;;;11.23;;
17598;SDS011;8918;52.092;5.232;2024-02-21T07:30:35;24.13;;;11.47;;
17598;SDS011;8918;52.092;5.232;2024-02-21T07:33:01;20.50;;;11.03;;
17598;SDS011;8918;52.092;5.232;2024-02-21T07:35:27;19.00;;;10.87;;
17598;SDS011;8918;52.092;5.232;2024-02-21T07:37:53;21.00;;;10.67;;
17598;SDS011;8918;52.092;5.232;2024-02-21T07:40:18;19.30;;;10.77;;
17598;SDS011;8918;52.092;5.232;2024-02-21T07:42:44;21.70;;;10.30;;
17598;SDS011;8918;52.092;5.232;2024-02-21T07:45:10;19.90;;;10.80;;
17598;SDS011;8918;52.092;5.232;2024-02-21T07:47:36;20.00;;;10.90;;
17598;SDS011;8918;52.092;5.232;2024-02-21T07:50:02;18.43;;;10.77;;
17598;SDS011;8918;52.092;5.232;2024-02-21T07:52:29;18.73;;;10.60;;
17598;SDS011;8918;52.092;5.232;2024-02-21T07:54:54;20.60;;;10.90;;
17598;SDS011;8918;52.092;5.232;2024-02-21T07:57:20;22.80;;;10.40;;
17598;SDS011;8918;52.092;5.232;2024-02-21T07:59:46;21.20;;;10.97;;
17598;SDS011;8918;52.092;5.232;2024-02-21T08:02:15;22.40;;;10.37;;
17598;SDS011;8918;52.092;5.232;2024-02-21T08:04:41;17.10;;;9.77;;
17598;SDS011;8918;52.092;5.232;2024-02-21T08:07:07;20.13;;;10.60;;
17598;SDS011;8918;52.092;5.232;2024-02-21T08:09:35;19.07;;;9.70;;
17598;SDS011;8918;52.092;5.232;2024-02-21T08:12:02;18.60;;;9.80;;
17598;SDS011;8918;52.092;5.232;2024-02-21T08:14:29;24.10;;;10.80;;
17598;SDS011;8918;52.092;5.232;2024-02-21T08:16:54;17.80;;;9.90;;
17598;SDS011;8918;52.092;5.232;2024-02-21T08:19:21;19.13;;;9.40;;
17598;SDS011;8918;52.092;5.232;2024-02-21T08:21:50;17.20;;;10.17;;
17598;SDS011;8918;52.092;5.232;2024-02-21T08:24:15;19.87;;;9.97;;
17598;SDS011;8918;52.092;5.232;2024-02-21T08:26:42;18.63;;;9.97;;
17598;SDS011;8918;52.092;5.232;2024-02-21T08:29:09;20.87;;;10.70;;
17598;SDS011;8918;52.092;5.232;2024-02-21T08:31:36;22.40;;;10.50;;
17598;SDS011;8918;52.092;5.232;2024-02-21T08:34:02;19.53;;;10.90;;
17598;SDS011;8918;52.092;5.232;2024-02-21T08:36:32;21.97;;;10.90;;
17598;SDS011;8918;52.092;5.232;2024-02-21T08:39:00;20.57;;;11.87;;
17598;SDS011;8918;52.092;5.232;2024-02-21T08:41:30;19.47;;;10.63;;
17598;SDS011;8918;52.092;5.232;2024-02-21T08:43:57;20.90;;;11.23;;
17598;SDS011;8918;52.092;5.232;2024-02-21T08:46:23;17.87;;;11.03;;
17598;SDS011;8918;52.092;5.232;2024-02-21T08:48:51;19.47;;;11.10;;
17598;SDS011;8918;52.092;5.232;2024-02-21T08:51:17;19.77;;;11.40;;
17598;SDS011;8918;52.092;5.232;2024-02-21T08:53:43;21.03;;;10.33;;
17598;SDS011;8918;52.092;5.232;2024-02-21T08:56:10;18.03;;;10.60;;
17598;SDS011;8918;52.092;5.232;2024-02-21T08:58:35;19.23;;;11.00;;
17598;SDS011;8918;52.092;5.232;2024-02-21T09:01:02;17.83;;;9.53;;
17598;SDS011;8918;52.092;5.232;2024-02-21T09:03:32;15.13;;;10.03;;
17598;SDS011;8918;52.092;5.232;2024-02-21T09:05:58;20.20;;;10.13;;
17598;SDS011;8918;52.092;5.232;2024-02-21T09:08:25;20.80;;;10.33;;
17598;SDS011;8918;52.092;5.232;2024-02-21T09:10:51;16.47;;;9.50;;
17598;SDS011;8918;52.092;5.232;2024-02-21T09:13:17;19.00;;;9.57;;
17598;SDS011;8918;52.092;5.232;2024-02-21T09:15:43;16.83;;;9.30;;
17598;SDS011;8918;52.092;5.232;2024-02-21T09:18:09;21.90;;;9.30;;
17598;SDS011;8918;52.092;5.232;2024-02-21T09:20:34;17.40;;;9.17;;
17598;SDS011;8918;52.092;5.232;2024-02-21T09:23:00;21.17;;;10.00;;
17598;SDS011;8918;52.092;5.232;2024-02-21T09:25:26;15.80;;;9.20;;
17598;SDS011;8918;52.092;5.232;2024-02-21T09:27:53;14.77;;;8.50;;
17598;SDS011;8918;52.092;5.232;2024-02-21T09:30:19;14.00;;;8.60;;
17598;SDS011;8918;52.092;5.232;2024-02-21T09:32:45;16.90;;;9.20;;
17598;SDS011;8918;52.092;5.232;2024-02-21T09:35:11;17.87;;;9.17;;
17598;SDS011;8918;52.092;5.232;2024-02-21T09:37:37;15.17;;;8.10;;
17598;SDS011;8918;52.092;5.232;2024-02-21T09:40:07;14.67;;;7.97;;
17598;SDS011;8918;52.092;5.232;2024-02-21T09:45:04;12.90;;;7.37;;
17598;SDS011;8918;52.092;5.232;2024-02-21T09:47:57;14.03;;;7.47;;
17598;SDS011;8918;52.092;5.232;2024-02-21T09:50:31;14.37;;;7.83;;
17598;SDS011;8918;52.092;5.232;2024-02-21T09:53:03;17.17;;;8.23;;
17598;SDS011;8918;52.092;5.232;2024-02-21T09:55:31;15.37;;;7.97;;
17598;SDS011;8918;52.092;5.232;2024-02-21T09:57:59;13.10;;;7.23;;
17598;SDS011;8918;52.092;5.232;2024-02-21T10:00:26;13.67;;;7.13;;
17598;SDS011;8918;52.092;5.232;2024-02-21T10:02:53;11.47;;;7.37;;
17598;SDS011;8918;52.092;5.232;2024-02-21T10:05:19;10.93;;;6.47;;
17598;SDS011;8918;52.092;5.232;2024-02-21T10:07:44;11.37;;;7.00;;
17598;SDS011;8918;52.092;5.232;2024-02-21T10:10:10;13.13;;;6.90;;
17598;SDS011;8918;52.092;5.232;2024-02-21T10:12:36;13.47;;;6.50;;
17598;SDS011;8918;52.092;5.232;2024-02-21T10:17:28;11.70;;;6.83;;
17598;SDS011;8918;52.092;5.232;2024-02-21T10:19:53;10.40;;;6.63;;
17598;SDS011;8918;52.092;5.232;2024-02-21T10:22:19;10.63;;;6.00;;
17598;SDS011;8918;52.092;5.232;2024-02-21T10:24:48;9.40;;;6.10;;
17598;SDS011;8918;52.092;5.232;2024-02-21T10:27:13;9.73;;;5.43;;
17598;SDS011;8918;52.092;5.232;2024-02-21T10:29:39;13.17;;;6.37;;
17598;SDS011;8918;52.092;5.232;2024-02-21T10:32:10;10.27;;;6.10;;
17598;SDS011;8918;52.092;5.232;2024-02-21T10:34:37;11.67;;;6.07;;
17598;SDS011;8918;52.092;5.232;2024-02-21T10:37:04;9.80;;;6.00;;
17598;SDS011;8918;52.092;5.232;2024-02-21T10:39:33;9.57;;;6.27;;
17598;SDS011;8918;52.092;5.232;2024-02-21T10:42:00;10.57;;;6.13;;
17598;SDS011;8918;52.092;5.232;2024-02-21T10:44:31;11.10;;;5.60;;
17598;SDS011;8918;52.092;5.232;2024-02-21T10:46:57;8.10;;;5.37;;
17598;SDS011;8918;52.092;5.232;2024-02-21T10:49:27;8.83;;;5.70;;
17598;SDS011;8918;52.092;5.232;2024-02-21T10:51:59;10.90;;;5.87;;
17598;SDS011;8918;52.092;5.232;2024-02-21T10:54:55;10.40;;;5.83;;
17598;SDS011;8918;52.092;5.232;2024-02-21T10:57:25;5.90;;;4.63;;
17598;SDS011;8918;52.092;5.232;2024-02-21T10:59:52;8.37;;;5.20;;
17598;SDS011;8918;52.092;5.232;2024-02-21T11:02:19;6.77;;;5.17;;
17598;SDS011;8918;52.092;5.232;2024-02-21T11:04:45;9.33;;;5.07;;
17598;SDS011;8918;52.092;5.232;2024-02-21T11:07:12;7.50;;;5.53;;
17598;SDS011;8918;52.092;5.232;2024-02-21T11:09:38;8.30;;;5.77;;
17598;SDS011;8918;52.092;5.232;2024-02-21T11:12:04;8.57;;;6.33;;
17598;SDS011;8918;52.092;5.232;2024-02-21T11:14:31;9.83;;;6.33;;
17598;SDS011;8918;52.092;5.232;2024-02-21T11:16:57;13.93;;;7.30;;
17598;SDS011;8918;52.092;5.232;2024-02-21T11:19:27;9.77;;;6.60;;
17598;SDS011;8918;52.092;5.232;2024-02-21T11:21:54;10.90;;;7.50;;
17598;SDS011;8918;52.092;5.232;2024-02-21T11:24:29;11.03;;;7.93;;
17598;SDS011;8918;52.092;5.232;2024-02-21T11:27:18;12.63;;;7.70;;
17598;SDS011;8918;52.092;5.232;2024-02-21T11:29:48;10.43;;;7.87;;
17598;SDS011;8918;52.092;5.232;2024-02-21T11:32:19;12.57;;;8.33;;
17598;SDS011;8918;52.092;5.232;2024-02-21T11:35:01;11.83;;;8.43;;
17598;SDS011;8918;52.092;5.232;2024-02-21T11:37:29;10.30;;;7.73;;
17598;SDS011;8918;52.092;5.232;2024-02-21T11:39:55;11.83;;;7.37;;
17598;SDS011;8918;52.092;5.232;2024-02-21T11:42:24;10.50;;;7.50;;
17598;SDS011;8918;52.092;5.232;2024-02-21T11:44:51;12.97;;;7.40;;
17598;SDS011;8918;52.092;5.232;2024-02-21T11:47:18;11.53;;;7.70;;
17598;SDS011;8918;52.092;5.232;2024-02-21T11:49:45;11.23;;;7.50;;
17598;SDS011;8918;52.092;5.232;2024-02-21T11:52:11;11.47;;;7.47;;
17598;SDS011;8918;52.092;5.232;2024-02-21T11:54:40;10.73;;;6.97;;
17598;SDS011;8918;52.092;5.232;2024-02-21T11:57:06;11.87;;;6.87;;
17598;SDS011;8918;52.092;5.232;2024-02-21T11:59:32;9.93;;;7.27;;
17598;SDS011;8918;52.092;5.232;2024-02-21T12:01:58;9.53;;;6.93;;
17598;SDS011;8918;52.092;5.232;2024-02-21T12:04:26;11.77;;;6.40;;
17598;SDS011;8918;52.092;5.232;2024-02-21T12:06:52;8.60;;;6.40;;
17598;SDS011;8918;52.092;5.232;2024-02-21T12:09:19;10.73;;;6.60;;
17598;SDS011;8918;52.092;5.232;2024-02-21T12:11:56;11.30;;;6.57;;
17598;SDS011;8918;52.092;5.232;2024-02-21T12:14:29;10.13;;;6.50;;
17598;SDS011;8918;52.092;5.232;2024-02-21T12:16:56;9.27;;;6.20;;
17598;SDS011;8918;52.092;5.232;2024-02-21T12:19:22;8.47;;;6.30;;
17598;SDS011;8918;52.092;5.232;2024-02-21T12:21:48;10.77;;;6.50;;
17598;SDS011;8918;52.092;5.232;2024-02-21T12:24:22;9.93;;;6.60;;
17598;SDS011;8918;52.092;5.232;2024-02-21T12:26:49;11.40;;;6.60;;
17598;SDS011;8918;52.092;5.232;2024-02-21T12:29:18;10.10;;;6.40;;
17598;SDS011;8918;52.092;5.232;2024-02-21T12:31:44;9.37;;;6.17;;
17598;SDS011;8918;52.092;5.232;2024-02-21T12:34:10;8.43;;;6.10;;
17598;SDS011;8918;52.092;5.232;2024-02-21T12:36:40;8.67;;;6.17;;
17598;SDS011;8918;52.092;5.232;2024-02-21T12:39:12;10.07;;;6.30;;
17598;SDS011;8918;52.092;5.232;2024-02-21T12:41:38;9.33;;;5.93;;
17598;SDS011;8918;52.092;5.232;2024-02-21T12:44:05;8.97;;;6.63;;
17598;SDS011;8918;52.092;5.232;2024-02-21T12:46:32;8.70;;;5.83;;
17598;SDS011;8918;52.092;5.232;2024-02-21T12:48:58;9.10;;;5.70;;
17598;SDS011;8918;52.092;5.232;2024-02-21T12:51:24;8.40;;;5.37;;
17598;SDS011;8918;52.092;5.232;2024-02-21T12:53:50;9.70;;;5.87;;
17598;SDS011;8918;52.092;5.232;2024-02-21T12:56:16;8.60;;;5.63;;
17598;SDS011;8918;52.092;5.232;2024-02-21T12:58:41;9.23;;;5.87;;
17598;SDS011;8918;52.092;5.232;2024-02-21T13:01:07;7.73;;;5.07;;
17598;SDS011;8918;52.092;5.232;2024-02-21T13:03:34;10.40;;;5.20;;
17598;SDS011;8918;52.092;5.232;2024-02-21T13:06:01;9.93;;;5.13;;
17598;SDS011;8918;52.092;5.232;2024-02-21T13:08:26;9.57;;;4.97;;
17598;SDS011;8918;52.092;5.232;2024-02-21T13:10:52;9.90;;;5.47;;
17598;SDS011;8918;52.092;5.232;2024-02-21T13:13:17;8.03;;;5.20;;
17598;SDS011;8918;52.092;5.232;2024-02-21T13:15:43;7.43;;;4.70;;
17598;SDS011;8918;52.092;5.232;2024-02-21T13:18:09;9.83;;;4.83;;
17598;SDS011;8918;52.092;5.232;2024-02-21T13:20:35;7.73;;;5.00;;
17598;SDS011;8918;52.092;5.232;2024-02-21T13:23:01;10.80;;;5.00;;
17598;SDS011;8918;52.092;5.232;2024-02-21T13:25:27;7.93;;;5.27;;
17598;SDS011;8918;52.092;5.232;2024-02-21T13:27:53;8.97;;;4.97;;
17598;SDS011;8918;52.092;5.232;2024-02-21T13:30:18;9.00;;;5.10;;
17598;SDS011;8918;52.092;5.232;2024-02-21T13:32:44;9.53;;;5.27;;
17598;SDS011;8918;52.092;5.232;2024-02-21T13:35:12;6.87;;;4.70;;
17598;SDS011;8918;52.092;5.232;2024-02-21T13:37:39;10.60;;;4.97;;
17598;SDS011;8918;52.092;5.232;2024-02-21T13:40:08;7.33;;;4.77;;
17598;SDS011;8918;52.092;5.232;2024-02-21T13:42:34;7.30;;;4.63;;
17598;SDS011;8918;52.092;5.232;2024-02-21T13:45:02;8.97;;;4.90;;
17598;SDS011;8918;52.092;5.232;2024-02-21T13:47:30;7.70;;;4.43;;
17598;SDS011;8918;52.092;5.232;2024-02-21T13:49:56;8.87;;;4.77;;
17598;SDS011;8918;52.092;5.232;2024-02-21T13:52:22;8.23;;;4.90;;
17598;SDS011;8918;52.092;5.232;2024-02-21T13:54:50;6.63;;;4.43;;
17598;SDS011;8918;52.092;5.232;2024-02-21T13:57:15;10.00;;;4.87;;
17598;SDS011;8918;52.092;5.232;2024-02-21T13:59:41;9.47;;;5.03;;
17598;SDS011;8918;52.092;5.232;2024-02-21T14:02:08;7.87;;;5.00;;
17598;SDS011;8918;52.092;5.232;2024-02-21T14:04:34;9.97;;;4.43;;
17598;SDS011;8918;52.092;5.232;2024-02-21T14:07:00;9.00;;;4.40;;
17598;SDS011;8918;52.092;5.232;2024-02-21T14:09:26;7.90;;;4.60;;
17598;SDS011;8918;52.092;5.232;2024-02-21T14:11:51;7.83;;;4.93;;
17598;SDS011;8918;52.092;5.232;2024-02-21T14:14:17;9.97;;;4.80;;
17598;SDS011;8918;52.092;5.232;2024-02-21T14:16:43;10.63;;;5.07;;
17598;SDS011;8918;52.092;5.232;2024-02-21T14:19:09;8.97;;;4.70;;
17598;SDS011;8918;52.092;5.232;2024-02-21T14:21:36;13.03;;;5.30;;
17598;SDS011;8918;52.092;5.232;2024-02-21T14:24:03;9.13;;;4.47;;
17598;SDS011;8918;52.092;5.232;2024-02-21T14:26:29;10.10;;;4.33;;
17598;SDS011;8918;52.092;5.232;2024-02-21T14:28:56;12.43;;;4.20;;
17598;SDS011;8918;52.092;5.232;2024-02-21T14:31:22;5.90;;;3.57;;
17598;SDS011;8918;52.092;5.232;2024-02-21T14:33:48;7.57;;;4.33;;
17598;SDS011;8918;52.092;5.232;2024-02-21T14:36:13;8.60;;;4.20;;
17598;SDS011;8918;52.092;5.232;2024-02-21T14:38:40;6.87;;;3.90;;
17598;SDS011;8918;52.092;5.232;2024-02-21T14:41:06;6.97;;;3.53;;
17598;SDS011;8918;52.092;5.232;2024-02-21T14:43:32;8.27;;;4.20;;
17598;SDS011;8918;52.092;5.232;2024-02-21T14:45:59;8.37;;;4.33;;
17598;SDS011;8918;52.092;5.232;2024-02-21T14:48:25;8.37;;;3.80;;
17598;SDS011;8918;52.092;5.232;2024-02-21T14:50:53;6.77;;;4.23;;
17598;SDS011;8918;52.092;5.232;2024-02-21T14:53:19;9.57;;;4.20;;